createdAt,value
2018-02-11T00:01:46.501Z,100276.67
2018-02-11T00:04:13.772Z,100280.19
2018-02-11T00:06:41.398Z,100267.84
2018-02-11T00:09:08.711Z,100261.42
2018-02-11T00:11:36.368Z,100258.77
2018-02-11T00:14:03.717Z,100258.09
2018-02-11T00:16:31.469Z,100261.47
2018-02-11T00:18:58.704Z,100253.34
2018-02-11T00:21:26.146Z,100255.70
2018-02-11T00:23:53.628Z,100240.05
2018-02-11T00:26:21.217Z,100230.22
2018-02-11T00:28:48.671Z,100235.83
2018-02-11T00:31:16.610Z,100224.31
2018-02-11T00:33:43.912Z,100231.88
2018-02-11T00:36:11.604Z,100228.20
2018-02-11T00:38:38.799Z,100222.09
2018-02-11T00:41:06.519Z,100221.53
2018-02-11T00:43:33.739Z,100221.34
2018-02-11T00:46:01.327Z,100216.14
2018-02-11T00:48:28.720Z,100209.48
2018-02-11T00:50:56.483Z,100205.27
2018-02-11T00:53:23.730Z,100210.58
2018-02-11T00:55:51.439Z,100205.13
2018-02-11T00:58:18.742Z,100208.48
2018-02-11T01:00:46.468Z,100199.87
2018-02-11T01:03:13.683Z,100194.46
2018-02-11T01:05:41.465Z,100193.11
2018-02-11T01:08:08.726Z,100195.41
2018-02-11T01:10:36.484Z,100195.13
2018-02-11T01:13:03.703Z,100194.33
2018-02-11T01:15:31.517Z,100191.59
2018-02-11T01:17:58.772Z,100199.91
2018-02-11T01:20:26.517Z,100193.11
2018-02-11T01:22:53.745Z,100191.91
2018-02-11T01:25:21.465Z,100180.45
2018-02-11T01:27:48.679Z,100189.14
2018-02-11T01:30:16.223Z,100187.89
2018-02-11T01:32:43.651Z,100195.44
2018-02-11T01:35:11.407Z,100195.64
2018-02-11T01:37:38.682Z,100201.25
2018-02-11T01:40:07.358Z,100207.36
2018-02-11T01:42:34.708Z,100205.61
2018-02-11T01:45:02.476Z,100208.44
2018-02-11T01:47:29.723Z,100204.62
2018-02-11T01:49:57.490Z,100203.94
2018-02-11T01:52:24.785Z,100196.64
2018-02-11T01:54:52.652Z,100186.89
2018-02-11T01:57:20.488Z,100184.93
2018-02-11T01:59:47.759Z,100180.55
2018-02-11T02:02:15.540Z,100172.69
2018-02-11T02:04:42.745Z,100161.23
2018-02-11T02:07:10.632Z,100144.09
2018-02-11T02:09:38.401Z,100126.98
2018-02-11T02:12:05.764Z,100137.06
2018-02-11T02:14:33.589Z,100154.31
2018-02-11T02:17:00.774Z,100145.16
2018-02-11T02:19:28.388Z,100148.63
2018-02-11T02:21:55.760Z,100133.61
2018-02-11T02:24:23.521Z,100136.59
2018-02-11T02:26:50.748Z,100128.62
2018-02-11T02:29:18.383Z,100130.33
2018-02-11T02:31:45.708Z,100129.94
2018-02-11T02:34:13.378Z,100136.77
2018-02-11T02:36:40.722Z,100143.94
2018-02-11T02:39:08.403Z,100138.42
2018-02-11T02:41:35.718Z,100141.08
2018-02-11T02:44:03.518Z,100148.75
2018-02-11T02:46:30.731Z,100145.22
2018-02-11T02:48:58.511Z,100146.08
2018-02-11T02:51:25.744Z,100135.05
2018-02-11T02:53:53.548Z,100134.91
2018-02-11T02:56:20.764Z,100139.20
2018-02-11T02:58:48.490Z,100131.28
2018-02-11T03:01:15.718Z,100137.80
2018-02-11T03:03:43.512Z,100143.06
2018-02-11T03:06:10.787Z,100139.72
2018-02-11T03:08:38.484Z,100145.48
2018-02-11T03:11:05.746Z,100147.50
2018-02-11T03:13:33.504Z,100140.52
2018-02-11T03:16:00.694Z,100145.04
2018-02-11T03:18:28.268Z,100149.05
2018-02-11T03:20:55.685Z,100154.86
2018-02-11T03:23:23.202Z,100147.01
2018-02-11T03:25:50.580Z,100154.48
2018-02-11T03:28:17.738Z,100157.17
2018-02-11T03:30:45.665Z,100161.04
2018-02-11T03:33:13.251Z,100162.66
2018-02-11T03:35:40.721Z,100161.70
2018-02-11T03:38:08.366Z,100168.91
2018-02-11T03:40:35.743Z,100169.91
2018-02-11T03:45:25.621Z,100172.91
2018-02-11T03:47:53.032Z,100183.52
2018-02-11T03:50:20.645Z,100183.30
2018-02-11T03:52:48.402Z,100182.13
2018-02-11T03:55:15.726Z,100189.05
2018-02-11T03:57:43.397Z,100193.05
2018-02-11T04:00:10.793Z,100182.22
2018-02-11T04:02:38.674Z,100174.39
2018-02-11T04:05:06.513Z,100173.92
2018-02-11T04:07:33.746Z,100175.17
2018-02-11T04:10:01.532Z,100176.44
2018-02-11T04:12:28.739Z,100175.77
2018-02-11T04:14:56.433Z,100172.78
2018-02-11T04:17:23.695Z,100175.38
2018-02-11T04:19:50.951Z,100176.66
2018-02-11T04:22:18.613Z,100180.56
2018-02-11T04:24:45.835Z,100181.36
2018-02-11T04:27:13.650Z,100184.12
2018-02-11T04:29:40.882Z,100190.51
2018-02-11T04:32:08.588Z,100197.84
2018-02-11T04:34:35.716Z,100207.08
2018-02-11T04:37:03.481Z,100201.22
2018-02-11T04:39:30.717Z,100206.84
2018-02-11T04:41:58.498Z,100202.58
2018-02-11T04:44:25.686Z,100204.87
2018-02-11T04:46:53.431Z,100211.13
2018-02-11T04:49:20.703Z,100208.71
2018-02-11T04:51:48.440Z,100218.52
2018-02-11T04:54:15.731Z,100219.67
2018-02-11T04:56:43.461Z,100216.45
2018-02-11T04:59:10.782Z,100220.86
2018-02-11T05:01:38.512Z,100224.24
2018-02-11T05:04:05.756Z,100225.59
2018-02-11T05:06:33.520Z,100221.89
2018-02-11T05:09:00.759Z,100221.43
2018-02-11T05:11:28.510Z,100220.13
2018-02-11T05:13:55.719Z,100225.70
2018-02-11T05:16:23.429Z,100217.63
2018-02-11T05:18:50.751Z,100215.66
2018-02-11T05:21:18.623Z,100217.30
2018-02-11T05:23:45.926Z,100222.48
2018-02-11T05:26:13.582Z,100231.73
2018-02-11T05:28:40.740Z,100234.48
2018-02-11T05:31:08.498Z,100237.23
2018-02-11T05:33:35.751Z,100241.20
2018-02-11T05:36:03.506Z,100243.13
2018-02-11T05:38:30.728Z,100239.30
2018-02-11T05:40:58.449Z,100237.36
2018-02-11T05:43:25.712Z,100241.41
2018-02-11T05:45:53.470Z,100245.78
2018-02-11T05:48:20.732Z,100245.69
2018-02-11T05:50:48.399Z,100257.30
2018-02-11T05:53:15.708Z,100260.25
2018-02-11T05:55:43.504Z,100267.27
2018-02-11T05:58:10.760Z,100261.63
2018-02-11T06:00:38.506Z,100261.83
2018-02-11T06:03:05.712Z,100262.31
2018-02-11T06:05:33.353Z,100259.41
2018-02-11T06:08:00.759Z,100257.13
2018-02-11T06:10:28.575Z,100255.42
2018-02-11T06:12:55.739Z,100246.10
2018-02-11T06:15:23.498Z,100244.70
2018-02-11T06:17:50.711Z,100245.34
2018-02-11T06:20:18.542Z,100241.59
2018-02-11T06:22:45.723Z,100238.81
2018-02-11T06:25:13.341Z,100243.56
2018-02-11T06:27:40.746Z,100240.14
2018-02-11T06:30:08.301Z,100228.67
2018-02-11T06:32:35.746Z,100228.45
2018-02-11T06:35:03.535Z,100233.46
2018-02-11T06:37:30.789Z,100232.49
2018-02-11T06:39:58.624Z,100224.22
2018-02-11T06:42:25.940Z,100224.40
2018-02-11T06:44:53.646Z,100228.30
2018-02-11T06:47:21.390Z,100224.91
2018-02-11T06:49:48.744Z,100232.67
2018-02-11T06:52:16.643Z,100227.77
2018-02-11T06:54:44.191Z,100221.58
2018-02-11T06:57:11.709Z,100211.74
2018-02-11T06:59:39.382Z,100218.60
2018-02-11T07:02:06.779Z,100214.64
2018-02-11T07:04:34.581Z,100219.05
2018-02-11T07:07:01.807Z,100210.28
2018-02-11T07:09:29.673Z,100206.16
2018-02-11T07:11:57.333Z,100215.00
2018-02-11T07:14:24.754Z,100203.01
2018-02-11T07:16:52.393Z,100200.41
2018-02-11T07:19:19.807Z,100201.66
2018-02-11T07:21:47.704Z,100193.50
2018-02-11T07:24:15.409Z,100191.20
2018-02-11T07:26:42.763Z,100194.65
2018-02-11T07:29:10.700Z,100196.84
2018-02-11T07:31:38.499Z,100191.54
